createdAt,value
2023-04-19T00:00:14.977Z,6.80
2023-04-19T00:03:03.095Z,6.76
2023-04-19T00:05:30.363Z,6.74
2023-04-19T00:07:57.587Z,6.73
2023-04-19T00:10:25.053Z,6.74
2023-04-19T00:12:52.823Z,6.74
2023-04-19T00:15:19.702Z,6.76
2023-04-19T00:17:46.901Z,6.76
2023-04-19T00:20:14.192Z,6.78
2023-04-19T00:22:41.544Z,6.84
2023-04-19T00:25:08.697Z,6.87
2023-04-19T00:27:36.006Z,6.89
2023-04-19T00:30:02.896Z,6.92
2023-04-19T00:32:30.145Z,6.94
2023-04-19T00:34:57.075Z,6.94
2023-04-19T00:37:24.251Z,6.95
2023-04-19T00:39:51.169Z,6.98
2023-04-19T00:42:18.279Z,6.98
2023-04-19T00:44:45.172Z,6.98
2023-04-19T00:47:13.863Z,7.00
2023-04-19T00:49:41.036Z,7.02
2023-04-19T00:52:08.547Z,7.03
2023-04-19T00:54:36.152Z,7.05
2023-04-19T00:57:03.364Z,7.08
2023-04-19T00:59:31.252Z,7.10
2023-04-19T01:01:58.625Z,7.12
2023-04-19T01:04:25.856Z,7.12
2023-04-19T01:06:53.883Z,7.13
2023-04-19T01:09:20.700Z,7.15
2023-04-19T01:11:47.874Z,7.17
2023-04-19T01:14:14.839Z,7.21
2023-04-19T01:16:42.119Z,7.24
2023-04-19T01:19:08.970Z,7.28
2023-04-19T01:21:40.280Z,7.34
2023-04-19T01:24:07.372Z,7.36
2023-04-19T01:26:34.535Z,7.38
2023-04-19T01:29:01.601Z,7.41
2023-04-19T01:31:28.966Z,7.41
2023-04-19T01:33:55.935Z,7.43
2023-04-19T01:36:23.099Z,7.42
2023-04-19T01:38:50.209Z,7.43
2023-04-19T01:41:17.319Z,7.44
2023-04-19T01:43:44.208Z,7.43
2023-04-19T01:46:11.401Z,7.43
2023-04-19T01:48:38.288Z,7.42
2023-04-19T01:51:05.525Z,7.39
2023-04-19T01:53:32.350Z,7.39
2023-04-19T01:55:59.433Z,7.37
2023-04-19T01:58:26.260Z,7.36
2023-04-19T02:00:53.425Z,7.34
2023-04-19T02:03:20.427Z,7.33
2023-04-19T02:05:47.715Z,7.32
2023-04-19T02:08:14.593Z,7.31
2023-04-19T02:10:41.855Z,7.32
2023-04-19T02:13:08.731Z,7.30
2023-04-19T02:15:37.360Z,7.31
2023-04-19T02:18:06.951Z,7.29
2023-04-19T02:20:34.400Z,7.29
2023-04-19T02:23:01.248Z,7.27
2023-04-19T02:25:28.474Z,7.27
2023-04-19T02:27:55.469Z,7.27
2023-04-19T02:30:22.866Z,7.27
2023-04-19T02:32:50.130Z,7.29
2023-04-19T02:35:17.268Z,7.30
2023-04-19T02:37:44.868Z,7.31
2023-04-19T02:40:12.091Z,7.33
2023-04-19T02:42:39.041Z,7.34
2023-04-19T02:45:06.863Z,7.38
2023-04-19T02:47:33.730Z,7.42
2023-04-19T02:50:01.929Z,7.45
2023-04-19T02:52:28.842Z,7.47
2023-04-19T02:54:56.023Z,7.50
2023-04-19T02:57:22.927Z,7.52
2023-04-19T02:59:50.452Z,7.55
2023-04-19T03:02:17.458Z,7.55
2023-04-19T03:04:44.642Z,7.58
2023-04-19T03:07:11.493Z,7.61
2023-04-19T03:09:38.866Z,7.63
2023-04-19T03:12:07.763Z,7.65
2023-04-19T03:14:34.817Z,7.61
2023-04-19T03:17:01.733Z,7.66
2023-04-19T03:19:29.196Z,7.69
2023-04-19T03:21:56.192Z,7.72
2023-04-19T03:24:31.021Z,7.73
2023-04-19T03:26:58.194Z,7.75
2023-04-19T03:29:25.521Z,7.78
2023-04-19T03:31:52.445Z,7.81
2023-04-19T03:34:19.682Z,7.84
2023-04-19T03:36:46.606Z,7.88
2023-04-19T03:39:13.922Z,7.90
2023-04-19T03:41:41.014Z,7.92
2023-04-19T03:44:08.152Z,7.94
2023-04-19T03:46:35.067Z,7.96
2023-04-19T03:49:02.291Z,7.98
2023-04-19T03:51:29.227Z,7.98
2023-04-19T03:53:56.423Z,8.01
2023-04-19T03:56:24.147Z,8.01
2023-04-19T03:58:51.933Z,8.05
2023-04-19T04:01:22.797Z,8.06
2023-04-19T04:03:50.329Z,8.08
2023-04-19T04:06:17.448Z,8.12
2023-04-19T04:08:44.670Z,8.12
2023-04-19T04:11:11.692Z,8.13
2023-04-19T04:13:38.894Z,8.18
2023-04-19T04:16:05.914Z,8.23
2023-04-19T04:18:33.097Z,8.27
2023-04-19T04:21:00.142Z,8.31
2023-04-19T04:23:28.477Z,8.37
2023-04-19T04:26:00.971Z,8.43
2023-04-19T04:28:28.612Z,8.48
2023-04-19T04:31:00.376Z,8.53
2023-04-19T04:33:28.675Z,8.60
2023-04-19T04:35:56.516Z,8.66
2023-04-19T04:38:25.213Z,8.71
2023-04-19T04:40:55.725Z,8.79
2023-04-19T04:43:25.869Z,8.86
2023-04-19T04:45:55.725Z,8.91
2023-04-19T04:48:23.168Z,8.98
2023-04-19T04:50:50.000Z,9.02
2023-04-19T04:53:17.262Z,9.08
2023-04-19T04:55:44.169Z,9.18
2023-04-19T04:58:11.311Z,9.25
2023-04-19T05:00:38.163Z,9.29
2023-04-19T05:03:05.562Z,9.34
2023-04-19T05:05:32.524Z,9.41
2023-04-19T05:07:59.702Z,9.44
2023-04-19T05:10:26.617Z,9.54
2023-04-19T05:12:53.772Z,9.56
2023-04-19T05:15:20.759Z,9.61
2023-04-19T05:17:48.003Z,9.60
2023-04-19T05:20:14.886Z,9.60
2023-04-19T05:22:42.092Z,9.64
2023-04-19T05:25:10.963Z,9.71
2023-04-19T05:27:38.254Z,9.78
2023-04-19T05:30:06.773Z,9.79
2023-04-19T05:32:34.161Z,9.87
2023-04-19T05:35:01.059Z,9.93
2023-04-19T05:37:28.268Z,10.02
2023-04-19T05:39:55.241Z,10.06
2023-04-19T05:42:22.440Z,10.05
2023-04-19T05:44:49.478Z,10.03
2023-04-19T05:47:17.615Z,10.00
2023-04-19T05:49:44.475Z,10.01
2023-04-19T05:52:11.907Z,9.97
2023-04-19T05:54:38.821Z,9.97
2023-04-19T05:57:05.998Z,9.98
2023-04-19T05:59:32.992Z,9.99
2023-04-19T06:02:01.543Z,9.98
2023-04-19T06:04:28.904Z,9.98
2023-04-19T06:06:56.364Z,9.98
2023-04-19T06:09:23.267Z,10.03
2023-04-19T06:11:51.578Z,10.07
2023-04-19T06:14:19.309Z,10.11
2023-04-19T06:16:47.152Z,10.16
2023-04-19T06:19:14.209Z,10.15
2023-04-19T06:21:41.415Z,10.16
2023-04-19T06:24:08.407Z,10.19
2023-04-19T06:26:35.569Z,10.22
2023-04-19T06:29:02.530Z,10.23
2023-04-19T06:31:30.030Z,10.27
2023-04-19T06:33:56.921Z,10.33
2023-04-19T06:36:24.017Z,10.42
2023-04-19T06:38:50.849Z,10.55
2023-04-19T06:41:18.107Z,10.69
2023-04-19T06:43:45.133Z,10.86
2023-04-19T06:46:14.520Z,11.03
2023-04-19T06:48:41.983Z,11.17
2023-04-19T06:51:09.588Z,11.28
2023-04-19T06:53:37.351Z,11.38
2023-04-19T06:56:05.273Z,11.47
2023-04-19T06:58:34.547Z,11.52
2023-04-19T07:01:04.288Z,11.57
2023-04-19T07:03:31.581Z,11.56
2023-04-19T07:05:59.151Z,11.54
2023-04-19T07:08:34.918Z,11.56
2023-04-19T07:11:09.947Z,11.66
2023-04-19T07:13:37.205Z,11.76
2023-04-19T07:16:05.745Z,11.83
2023-04-19T07:18:32.891Z,11.88
2023-04-19T07:21:00.127Z,11.93
2023-04-19T07:23:27.035Z,11.95
2023-04-19T07:25:54.196Z,11.99
2023-04-19T07:28:21.098Z,11.98
2023-04-19T07:30:48.210Z,11.98
2023-04-19T07:33:15.132Z,12.04
2023-04-19T07:35:42.389Z,12.08
2023-04-19T07:38:09.283Z,12.15
2023-04-19T07:40:36.858Z,12.25
2023-04-19T07:43:03.681Z,12.36
2023-04-19T07:45:31.295Z,12.46
2023-04-19T07:47:58.480Z,12.55
2023-04-19T07:50:26.968Z,12.68
2023-04-19T07:52:54.020Z,12.77
2023-04-19T07:55:21.479Z,12.83
2023-04-19T07:57:49.625Z,12.88
2023-04-19T08:00:18.359Z,12.90
2023-04-19T08:02:46.507Z,12.92
2023-04-19T08:05:17.836Z,12.94
2023-04-19T08:07:45.951Z,12.90
2023-04-19T08:10:13.598Z,12.81
2023-04-19T08:12:53.658Z,12.80
2023-04-19T08:16:13.145Z,12.81
2023-04-19T08:18:15.699Z,12.86
2023-04-19T08:20:43.014Z,12.86
2023-04-19T08:23:22.199Z,12.82
2023-04-19T08:25:51.591Z,12.77
2023-04-19T08:28:19.360Z,12.72
2023-04-19T08:30:46.755Z,12.75
2023-04-19T08:33:13.690Z,12.78
2023-04-19T08:35:41.669Z,12.83
2023-04-19T08:38:08.974Z,12.88
2023-04-19T08:40:47.177Z,12.91
2023-04-19T08:43:15.235Z,12.91
2023-04-19T08:45:42.771Z,12.84
2023-04-19T08:48:11.969Z,12.81
2023-04-19T08:50:55.999Z,12.75
2023-04-19T08:53:31.318Z,12.71
2023-04-19T08:58:52.056Z,12.78
2023-04-19T09:01:33.807Z,12.79
2023-04-19T09:04:31.701Z,12.78
2023-04-19T09:06:55.511Z,12.83
2023-04-19T09:11:53.466Z,12.84
2023-04-19T09:14:23.315Z,12.83
2023-04-19T09:16:52.341Z,12.83
2023-04-19T09:19:24.666Z,12.82
2023-04-19T09:21:54.735Z,12.83
2023-04-19T09:25:14.522Z,12.86
2023-04-19T09:27:31.203Z,12.93
2023-04-19T09:29:59.997Z,12.98
2023-04-19T09:32:28.561Z,13.02
2023-04-19T09:35:00.051Z,13.02
2023-04-19T09:39:57.206Z,13.25
2023-04-19T09:42:42.653Z,13.43
2023-04-19T09:47:41.701Z,13.93
2023-04-19T09:50:21.788Z,14.20
2023-04-19T09:52:51.236Z,14.54
2023-04-19T09:57:49.651Z,15.25
2023-04-19T10:00:16.800Z,15.76
2023-04-19T10:02:48.890Z,16.60
2023-04-19T10:05:21.116Z,17.82
2023-04-19T10:07:50.269Z,18.83
2023-04-19T10:10:20.815Z,19.85
2023-04-19T10:15:22.757Z,20.82
2023-04-19T10:17:50.799Z,20.98
2023-04-19T10:20:24.236Z,21.17
2023-04-19T10:22:51.916Z,21.64
2023-04-19T10:25:19.040Z,22.51
2023-04-19T10:27:46.935Z,23.06
2023-04-19T10:30:18.696Z,23.57
2023-04-19T10:32:52.028Z,24.27
2023-04-19T10:35:21.417Z,25.08
2023-04-19T10:38:09.740Z,25.47
2023-04-19T10:40:52.010Z,25.90
2023-04-19T10:43:19.859Z,26.04
2023-04-19T10:45:47.693Z,25.69
2023-04-19T10:48:30.903Z,25.02
2023-04-19T10:51:22.740Z,24.32
2023-04-19T10:53:53.759Z,24.01
2023-04-19T10:56:32.938Z,24.30
2023-04-19T10:59:03.117Z,25.15
2023-04-19T11:01:52.409Z,25.66
2023-04-19T11:04:31.741Z,26.09
2023-04-19T11:07:03.636Z,26.84
2023-04-19T11:09:39.422Z,27.44
2023-04-19T11:12:10.920Z,27.98
2023-04-19T11:14:40.943Z,28.42
2023-04-19T11:17:18.921Z,28.99
2023-04-19T11:19:53.912Z,29.40
2023-04-19T11:22:35.053Z,29.81
2023-04-19T11:25:22.289Z,30.20
2023-04-19T11:27:52.271Z,30.56
2023-04-19T11:30:23.066Z,30.43
2023-04-19T11:32:54.531Z,30.26
2023-04-19T11:35:27.932Z,30.21
2023-04-19T11:37:57.012Z,29.70
2023-04-19T11:40:28.557Z,29.18
2023-04-19T11:43:01.010Z,28.29
2023-04-19T11:45:31.631Z,27.12
2023-04-19T11:48:01.097Z,26.07
2023-04-19T11:50:41.389Z,24.96
2023-04-19T11:53:11.297Z,24.26
2023-04-19T11:55:38.483Z,23.79
2023-04-19T11:58:11.264Z,23.71
2023-04-19T12:00:38.522Z,23.55
2023-04-19T12:03:05.876Z,23.08
2023-04-19T12:05:33.819Z,22.41
2023-04-19T12:08:04.611Z,21.78
2023-04-19T12:10:32.585Z,21.20
2023-04-19T12:12:59.588Z,20.63
2023-04-19T12:15:46.236Z,19.90
2023-04-19T12:18:14.624Z,19.44
2023-04-19T12:20:48.513Z,18.96
2023-04-19T12:23:16.820Z,18.48
2023-04-19T12:25:49.447Z,18.02
2023-04-19T12:28:17.050Z,17.70
2023-04-19T12:30:45.787Z,17.72
2023-04-19T12:33:12.790Z,18.21
2023-04-19T12:35:41.101Z,19.01
2023-04-19T12:38:08.903Z,19.79
2023-04-19T12:40:36.406Z,20.13
2023-04-19T12:43:06.091Z,20.49
2023-04-19T12:45:34.933Z,21.11
2023-04-19T12:48:01.913Z,21.34
2023-04-19T12:50:29.166Z,21.36
2023-04-19T12:52:56.019Z,21.18
2023-04-19T12:55:23.314Z,21.42
2023-04-19T12:57:50.295Z,21.50
2023-04-19T13:00:17.634Z,21.48
2023-04-19T13:02:44.704Z,21.20
2023-04-19T13:05:13.006Z,20.70
2023-04-19T13:07:40.264Z,20.32
2023-04-19T13:10:07.882Z,20.14
2023-04-19T13:12:37.587Z,20.24
2023-04-19T13:15:05.254Z,20.52
2023-04-19T13:17:32.579Z,20.90
2023-04-19T13:19:59.708Z,21.34
2023-04-19T13:22:26.845Z,21.56
2023-04-19T13:24:54.149Z,21.20
2023-04-19T13:27:21.077Z,20.24
2023-04-19T13:29:48.246Z,19.49
2023-04-19T13:32:15.262Z,18.97
2023-04-19T13:34:42.439Z,18.29
2023-04-19T13:37:09.514Z,17.70
2023-04-19T13:39:37.101Z,17.13
2023-04-19T13:42:04.227Z,16.70
2023-04-19T13:44:31.467Z,16.36
2023-04-19T13:46:58.505Z,16.09
2023-04-19T13:49:26.536Z,15.87
2023-04-19T13:51:53.377Z,15.68
2023-04-19T13:54:21.309Z,15.53
2023-04-19T13:56:50.480Z,15.39
2023-04-19T13:59:19.576Z,15.29
2023-04-19T14:01:46.576Z,15.21
2023-04-19T14:04:13.912Z,15.12
2023-04-19T14:06:40.973Z,15.05
2023-04-19T14:09:08.217Z,14.97
2023-04-19T14:11:35.422Z,14.87
2023-04-19T14:14:02.584Z,14.81
2023-04-19T14:16:29.482Z,14.69
2023-04-19T14:18:56.727Z,14.65
2023-04-19T14:21:23.655Z,14.64
2023-04-19T14:23:50.820Z,14.64
2023-04-19T14:26:17.697Z,14.65
2023-04-19T14:28:44.882Z,14.68
2023-04-19T14:31:11.746Z,14.75
2023-04-19T14:33:38.926Z,14.84
2023-04-19T14:36:06.152Z,14.89
2023-04-19T14:38:33.958Z,14.93
2023-04-19T14:41:00.926Z,14.96
2023-04-19T14:43:28.068Z,14.99
2023-04-19T14:45:55.614Z,15.00
2023-04-19T14:48:22.835Z,14.99
2023-04-19T14:50:49.672Z,14.96
2023-04-19T14:53:16.828Z,14.92
2023-04-19T14:55:43.697Z,14.81
2023-04-19T14:58:10.848Z,14.71
2023-04-19T15:00:37.682Z,14.64
2023-04-19T15:03:05.123Z,14.51
2023-04-19T15:05:35.651Z,14.27
2023-04-19T15:08:03.229Z,14.20
2023-04-19T15:10:30.169Z,13.99
2023-04-19T15:12:58.181Z,13.78
2023-04-19T15:15:25.107Z,13.59
2023-04-19T15:17:52.361Z,13.41
2023-04-19T15:20:19.399Z,13.39
2023-04-19T15:22:46.827Z,13.38
2023-04-19T15:25:13.803Z,13.38
2023-04-19T15:27:41.288Z,13.35
2023-04-19T15:30:08.578Z,13.24
2023-04-19T15:32:38.685Z,13.20
2023-04-19T15:35:06.493Z,13.18
2023-04-19T15:37:33.687Z,13.12
2023-04-19T15:40:00.782Z,13.06
2023-04-19T15:42:27.913Z,13.03
2023-04-19T15:44:54.744Z,13.00
2023-04-19T15:47:21.876Z,13.00
2023-04-19T15:49:48.804Z,13.02
2023-04-19T15:52:15.977Z,13.04
2023-04-19T15:54:42.841Z,13.01
2023-04-19T15:57:10.305Z,13.00
2023-04-19T15:59:37.165Z,12.96
2023-04-19T16:02:04.403Z,12.93
2023-04-19T16:04:32.261Z,12.90
2023-04-19T16:06:59.645Z,12.89
2023-04-19T16:09:26.990Z,12.89
2023-04-19T16:11:54.199Z,12.86
2023-04-19T16:14:21.125Z,12.87
2023-04-19T16:16:48.587Z,12.85
2023-04-19T16:19:15.767Z,12.85
2023-04-19T16:21:43.033Z,12.86
2023-04-19T16:24:09.877Z,12.87
2023-04-19T16:26:37.012Z,12.87
2023-04-19T16:29:03.907Z,12.87
2023-04-19T16:31:31.171Z,12.90
2023-04-19T16:33:58.059Z,12.92
2023-04-19T16:36:25.200Z,12.93
2023-04-19T16:38:52.042Z,12.94
2023-04-19T16:41:19.196Z,12.94
2023-04-19T16:43:46.021Z,12.97
2023-04-19T16:46:13.207Z,12.97
2023-04-19T16:48:40.097Z,12.96
2023-04-19T16:51:07.293Z,12.97
2023-04-19T16:53:34.192Z,12.94
2023-04-19T16:56:03.635Z,12.94
2023-04-19T16:58:30.982Z,12.90
2023-04-19T17:00:58.458Z,12.89
2023-04-19T17:03:25.841Z,12.88
2023-04-19T17:05:53.013Z,12.86
2023-04-19T17:08:21.565Z,12.82
2023-04-19T17:10:48.877Z,12.79
2023-04-19T17:13:15.870Z,12.77
2023-04-19T17:15:43.188Z,12.72
2023-04-19T17:18:10.246Z,12.69
2023-04-19T17:20:37.485Z,12.65
2023-04-19T17:23:04.387Z,12.60
2023-04-19T17:25:31.558Z,12.56
2023-04-19T17:27:58.447Z,12.53
2023-04-19T17:30:26.093Z,12.48
2023-04-19T17:32:53.107Z,12.43
2023-04-19T17:35:20.362Z,12.39
2023-04-19T17:37:47.195Z,12.34
2023-04-19T17:40:14.331Z,12.30
2023-04-19T17:42:41.121Z,12.26
2023-04-19T17:45:11.189Z,12.22
2023-04-19T17:47:39.608Z,12.18
2023-04-19T17:50:11.906Z,12.12
2023-04-19T17:52:39.605Z,12.09
2023-04-19T17:55:07.444Z,12.03
2023-04-19T17:57:34.893Z,12.00
2023-04-19T18:00:06.605Z,11.95
2023-04-19T18:02:34.851Z,11.94
2023-04-19T18:05:02.673Z,11.88
2023-04-19T18:07:29.937Z,11.82
2023-04-19T18:09:57.139Z,11.79
2023-04-19T18:12:24.056Z,11.75
2023-04-19T18:14:51.488Z,11.69
2023-04-19T18:17:18.345Z,11.64
2023-04-19T18:19:46.086Z,11.58
2023-04-19T18:22:13.097Z,11.54
2023-04-19T18:24:42.164Z,11.47
2023-04-19T18:27:09.032Z,11.42
2023-04-19T18:29:36.189Z,11.38
2023-04-19T18:32:03.108Z,11.32
2023-04-19T18:34:30.438Z,11.26
2023-04-19T18:37:01.894Z,11.19
2023-04-19T18:39:29.151Z,11.13
2023-04-19T18:41:57.689Z,11.08
2023-04-19T18:44:49.549Z,11.00
2023-04-19T18:47:12.260Z,10.91
2023-04-19T18:49:39.850Z,10.84
2023-04-19T18:52:06.955Z,10.75
2023-04-19T18:54:34.225Z,10.67
2023-04-19T18:59:31.720Z,10.52
2023-04-19T19:01:58.663Z,10.45
2023-04-19T19:04:47.999Z,10.39
2023-04-19T19:07:27.878Z,10.31
2023-04-19T19:10:01.579Z,10.23
2023-04-19T19:12:30.871Z,10.17
2023-04-19T19:14:58.124Z,10.11
2023-04-19T19:17:28.126Z,10.03
2023-04-19T19:19:55.443Z,9.96
2023-04-19T19:22:27.591Z,9.89
2023-04-19T19:24:56.373Z,9.84
2023-04-19T19:27:23.281Z,9.78
2023-04-19T19:29:50.715Z,9.73
2023-04-19T19:32:17.597Z,9.68
2023-04-19T19:34:54.729Z,9.60
2023-04-19T19:37:27.021Z,9.53
2023-04-19T19:39:56.371Z,9.49
2023-04-19T19:42:24.176Z,9.48
2023-04-19T19:44:55.508Z,9.45
2023-04-19T19:47:23.681Z,9.46
2023-04-19T19:50:34.817Z,9.46
2023-04-19T19:52:38.034Z,9.47
2023-04-19T19:55:06.033Z,9.49
2023-04-19T20:00:22.862Z,9.50
2023-04-19T20:02:55.843Z,9.52
2023-04-19T20:05:24.433Z,9.52
2023-04-19T20:10:21.864Z,9.50
2023-04-19T20:12:48.778Z,9.51
2023-04-19T20:15:16.024Z,9.47
2023-04-19T20:17:43.890Z,9.45
2023-04-19T20:20:11.738Z,9.44
2023-04-19T20:22:38.700Z,9.44
2023-04-19T20:25:06.734Z,9.44
2023-04-19T20:27:33.737Z,9.44
2023-04-19T20:30:01.019Z,9.45
2023-04-19T20:32:28.052Z,9.44
2023-04-19T20:34:55.277Z,9.45
2023-04-19T20:37:22.658Z,9.45
2023-04-19T20:39:49.838Z,9.46
2023-04-19T20:42:16.854Z,9.48
2023-04-19T20:44:44.517Z,9.45
2023-04-19T20:47:13.321Z,9.45
2023-04-19T20:49:41.090Z,9.43
2023-04-19T20:52:08.009Z,9.43
2023-04-19T20:54:36.781Z,9.43
2023-04-19T20:57:04.855Z,9.43
2023-04-19T20:59:32.184Z,9.41
2023-04-19T21:02:00.299Z,9.41
2023-04-19T21:04:27.935Z,9.39
2023-04-19T21:06:54.889Z,9.38
2023-04-19T21:09:22.022Z,9.37
2023-04-19T21:11:48.956Z,9.37
2023-04-19T21:14:16.254Z,9.38
2023-04-19T21:16:43.071Z,9.39
2023-04-19T21:19:10.232Z,9.39
2023-04-19T21:21:37.065Z,9.41
2023-04-19T21:24:04.225Z,9.41
2023-04-19T21:26:31.076Z,9.43
2023-04-19T21:28:58.322Z,9.43
2023-04-19T21:31:26.297Z,9.46
2023-04-19T21:33:53.485Z,9.46
2023-04-19T21:36:20.652Z,9.47
2023-04-19T21:38:47.889Z,9.49
2023-04-19T21:41:14.728Z,9.50
2023-04-19T21:43:41.909Z,9.49
2023-04-19T21:46:10.035Z,9.51
2023-04-19T21:48:37.229Z,9.50
2023-04-19T21:51:06.203Z,9.52
2023-04-19T21:53:33.242Z,9.45
2023-04-19T21:56:00.145Z,9.47
2023-04-19T21:58:27.360Z,9.46
2023-04-19T22:00:54.333Z,9.45
2023-04-19T22:03:21.858Z,9.45
2023-04-19T22:05:48.924Z,9.43
2023-04-19T22:08:18.136Z,9.41
2023-04-19T22:10:46.432Z,9.36
2023-04-19T22:13:14.090Z,9.30
2023-04-19T22:15:41.054Z,9.23
2023-04-19T22:18:08.722Z,9.13
2023-04-19T22:20:35.846Z,9.05
2023-04-19T22:23:03.083Z,8.98
2023-04-19T22:25:29.887Z,8.94
2023-04-19T22:27:56.992Z,8.89
2023-04-19T22:30:23.871Z,8.85
2023-04-19T22:32:51.307Z,8.82
2023-04-19T22:35:19.529Z,8.77
2023-04-19T22:37:47.886Z,8.74
2023-04-19T22:40:14.766Z,8.71
2023-04-19T22:42:41.941Z,8.69
2023-04-19T22:45:09.384Z,8.67
2023-04-19T22:47:37.463Z,8.65
2023-04-19T22:50:05.007Z,8.65
2023-04-19T22:52:32.189Z,8.64
2023-04-19T22:54:59.075Z,8.61
2023-04-19T22:57:26.266Z,8.58
2023-04-19T22:59:53.154Z,8.56
2023-04-19T23:02:20.402Z,8.52
2023-04-19T23:04:48.684Z,8.47
2023-04-19T23:07:16.248Z,8.43
2023-04-19T23:09:43.149Z,8.40
2023-04-19T23:12:10.297Z,8.34
2023-04-19T23:14:38.956Z,8.26
2023-04-19T23:17:06.323Z,8.11
2023-04-19T23:19:33.320Z,8.10
2023-04-19T23:22:00.493Z,8.06
2023-04-19T23:24:27.312Z,8.04
2023-04-19T23:26:54.500Z,7.99
2023-04-19T23:29:21.449Z,7.90
2023-04-19T23:31:48.698Z,7.86
2023-04-19T23:34:16.683Z,7.82
2023-04-19T23:36:43.832Z,7.77
2023-04-19T23:39:10.836Z,7.73
2023-04-19T23:41:37.995Z,7.69
2023-04-19T23:44:04.989Z,7.64
2023-04-19T23:46:32.190Z,7.63
2023-04-19T23:48:59.090Z,7.62
2023-04-19T23:51:26.233Z,7.59
2023-04-19T23:53:53.047Z,7.55
2023-04-19T23:56:20.161Z,7.54
2023-04-19T23:58:47.043Z,7.53
